createdAt,value
2023-05-06T00:00:06.547Z,13.80
2023-05-06T00:02:36.072Z,14.97
2023-05-06T00:05:04.861Z,15.43
2023-05-06T00:07:33.065Z,15.50
2023-05-06T00:10:01.054Z,15.63
2023-05-06T00:12:29.064Z,15.40
2023-05-06T00:14:57.097Z,15.00
2023-05-06T00:17:25.089Z,14.73
2023-05-06T00:19:54.631Z,15.30
2023-05-06T00:22:22.575Z,16.37
2023-05-06T00:24:50.520Z,15.43
2023-05-06T00:27:18.706Z,15.20
2023-05-06T00:29:46.659Z,15.50
2023-05-06T00:32:14.580Z,15.63
2023-05-06T00:34:42.588Z,14.93
2023-05-06T00:37:11.929Z,15.83
2023-05-06T00:39:39.907Z,14.97
2023-05-06T00:42:07.961Z,14.63
2023-05-06T00:44:35.947Z,15.40
2023-05-06T00:47:04.515Z,15.33
2023-05-06T00:49:32.930Z,15.57
2023-05-06T00:52:01.855Z,16.03
2023-05-06T00:54:31.681Z,16.00
2023-05-06T00:56:59.813Z,15.27
2023-05-06T00:59:27.868Z,14.93
2023-05-06T01:01:56.054Z,16.60
2023-05-06T01:04:25.541Z,16.27
2023-05-06T01:07:03.833Z,16.83
2023-05-06T01:09:42.836Z,15.43
2023-05-06T01:12:18.330Z,15.57
2023-05-06T01:14:56.962Z,17.30
2023-05-06T01:17:28.693Z,15.83
2023-05-06T01:20:01.809Z,16.20
2023-05-06T01:22:31.647Z,16.00
2023-05-06T01:25:01.755Z,17.57
2023-05-06T01:27:30.306Z,17.60
2023-05-06T01:30:00.771Z,19.57
2023-05-06T01:32:39.959Z,18.77
2023-05-06T01:35:18.080Z,17.67
2023-05-06T01:37:57.419Z,17.77
2023-05-06T01:40:30.313Z,19.20
2023-05-06T01:42:58.876Z,19.13
2023-05-06T01:45:29.906Z,18.80
2023-05-06T01:47:58.650Z,19.03
2023-05-06T01:50:27.304Z,19.00
2023-05-06T01:52:59.211Z,18.13
2023-05-06T01:55:28.655Z,19.60
2023-05-06T01:57:57.736Z,19.23
2023-05-06T02:00:26.617Z,20.67
2023-05-06T02:02:54.880Z,20.70
2023-05-06T02:05:22.831Z,18.53
2023-05-06T02:07:51.392Z,19.90
2023-05-06T02:10:19.617Z,19.23
2023-05-06T02:12:49.569Z,20.67
2023-05-06T02:15:17.629Z,21.40
2023-05-06T02:17:46.284Z,23.90
2023-05-06T02:20:14.487Z,24.67
2023-05-06T02:22:42.670Z,28.50
2023-05-06T02:25:11.271Z,25.73
2023-05-06T02:27:39.590Z,20.60
2023-05-06T02:30:09.797Z,20.77
2023-05-06T02:32:37.961Z,20.53
2023-05-06T02:35:07.048Z,23.47
2023-05-06T02:37:35.173Z,25.70
2023-05-06T02:40:03.207Z,28.87
2023-05-06T02:42:31.299Z,27.20
2023-05-06T02:44:59.458Z,30.87
2023-05-06T02:47:28.759Z,32.13
2023-05-06T02:49:56.947Z,30.90
2023-05-06T02:52:24.966Z,28.67
2023-05-06T02:54:53.182Z,29.70
2023-05-06T02:57:21.177Z,30.77
2023-05-06T02:59:49.144Z,31.70
2023-05-06T03:02:17.060Z,30.83
2023-05-06T03:04:46.506Z,30.43
2023-05-06T03:07:14.676Z,29.30
2023-05-06T03:09:42.606Z,26.00
2023-05-06T03:12:10.588Z,29.23
2023-05-06T03:14:38.640Z,24.80
2023-05-06T03:17:06.851Z,27.03
2023-05-06T03:19:34.841Z,26.33
2023-05-06T03:22:04.285Z,27.30
2023-05-06T03:24:32.363Z,24.90
2023-05-06T03:27:01.861Z,24.43
2023-05-06T03:29:29.983Z,25.47
2023-05-06T03:31:58.160Z,25.27
2023-05-06T03:34:26.311Z,18.87
2023-05-06T03:36:54.330Z,18.23
2023-05-06T03:39:23.826Z,17.33
2023-05-06T03:41:51.911Z,16.97
2023-05-06T03:44:19.932Z,17.30
2023-05-06T03:46:48.023Z,17.97
2023-05-06T03:49:15.987Z,18.60
2023-05-06T03:51:43.997Z,16.77
2023-05-06T03:54:12.155Z,17.70
2023-05-06T03:56:41.535Z,16.73
2023-05-06T03:59:09.993Z,17.20
2023-05-06T04:01:37.991Z,16.80
2023-05-06T04:04:06.415Z,18.50
2023-05-06T04:06:34.433Z,17.53
2023-05-06T04:09:02.477Z,18.43
2023-05-06T04:11:31.154Z,17.63
2023-05-06T04:14:03.022Z,17.53
2023-05-06T04:16:31.372Z,18.40
2023-05-06T04:19:02.860Z,17.93
2023-05-06T04:21:32.552Z,18.80
2023-05-06T04:24:00.545Z,20.20
2023-05-06T04:26:29.200Z,18.37
2023-05-06T04:28:57.962Z,18.83
2023-05-06T04:34:17.576Z,17.83
2023-05-06T04:36:46.096Z,18.33
2023-05-06T04:39:14.086Z,18.10
2023-05-06T04:41:42.047Z,19.13
2023-05-06T04:44:10.184Z,18.93
2023-05-06T04:46:39.673Z,18.40
2023-05-06T04:49:07.664Z,18.00
2023-05-06T04:51:35.727Z,17.37
2023-05-06T04:54:03.723Z,15.77
2023-05-06T04:56:31.782Z,15.70
2023-05-06T04:58:59.727Z,15.27
2023-05-06T05:01:27.699Z,14.97
2023-05-06T05:03:59.616Z,16.30
2023-05-06T05:06:28.912Z,16.83
2023-05-06T05:08:59.351Z,16.27
2023-05-06T05:11:42.019Z,16.23
2023-05-06T05:14:10.032Z,16.37
2023-05-06T05:16:38.648Z,15.50
2023-05-06T05:19:13.136Z,15.77
2023-05-06T05:21:41.613Z,15.20
2023-05-06T05:24:09.717Z,15.50
2023-05-06T05:26:37.753Z,15.33
2023-05-06T05:29:06.666Z,14.30
2023-05-06T05:31:34.757Z,13.63
2023-05-06T05:34:03.287Z,14.70
2023-05-06T05:36:35.293Z,13.50
2023-05-06T05:39:04.150Z,14.13
2023-05-06T05:41:32.257Z,13.47
2023-05-06T05:44:00.548Z,13.47
2023-05-06T05:46:28.663Z,13.13
2023-05-06T05:48:56.753Z,13.03
2023-05-06T05:51:24.917Z,13.93
2023-05-06T05:53:54.311Z,13.80
2023-05-06T05:56:22.400Z,12.07
2023-05-06T05:58:50.615Z,12.53
2023-05-06T06:01:18.730Z,12.30
2023-05-06T06:03:47.176Z,12.93
2023-05-06T06:06:15.527Z,11.30
2023-05-06T06:08:46.156Z,11.10
2023-05-06T06:11:15.893Z,11.10
2023-05-06T06:13:45.300Z,12.17
2023-05-06T06:16:13.423Z,13.17
2023-05-06T06:18:41.403Z,15.07
2023-05-06T06:21:09.524Z,19.00
2023-05-06T06:23:37.560Z,20.43
2023-05-06T06:26:05.717Z,25.27
2023-05-06T06:28:35.159Z,23.43
2023-05-06T06:31:03.593Z,23.50
2023-05-06T06:33:32.085Z,22.23
2023-05-06T06:36:01.493Z,21.50
2023-05-06T06:38:30.266Z,22.50
2023-05-06T06:40:58.266Z,21.63
2023-05-06T06:43:26.894Z,22.20
2023-05-06T06:45:56.439Z,20.73
2023-05-06T06:48:24.477Z,21.00
2023-05-06T06:50:52.632Z,19.80
2023-05-06T06:53:21.380Z,20.40
2023-05-06T06:55:49.681Z,19.00
2023-05-06T06:58:17.690Z,19.73
2023-05-06T07:00:46.022Z,19.43
2023-05-06T07:03:15.997Z,18.57
2023-05-06T07:05:44.132Z,17.67
2023-05-06T07:08:12.389Z,18.33
2023-05-06T07:10:40.517Z,17.57
2023-05-06T07:13:08.534Z,16.67
2023-05-06T07:15:36.951Z,16.63
2023-05-06T07:18:05.315Z,16.03
2023-05-06T07:20:34.840Z,17.77
2023-05-06T07:23:03.095Z,14.93
2023-05-06T07:25:31.484Z,13.23
2023-05-06T07:27:59.555Z,11.80
2023-05-06T07:30:28.113Z,11.80
2023-05-06T07:32:56.222Z,11.50
2023-05-06T07:35:24.214Z,11.50
2023-05-06T07:37:54.349Z,11.03
2023-05-06T07:40:22.492Z,11.80
2023-05-06T07:42:50.648Z,10.57
2023-05-06T07:45:22.309Z,10.47
2023-05-06T07:47:50.673Z,9.68
2023-05-06T07:50:18.780Z,8.52
2023-05-06T07:52:46.959Z,8.60
2023-05-06T07:55:16.385Z,7.47
2023-05-06T07:57:44.548Z,7.82
2023-05-06T08:00:13.278Z,8.93
2023-05-06T08:02:44.495Z,8.23
2023-05-06T08:05:12.983Z,7.72
2023-05-06T08:07:42.474Z,7.80
2023-05-06T08:10:14.200Z,8.02
2023-05-06T08:12:43.673Z,9.38
2023-05-06T08:15:12.894Z,7.72
2023-05-06T08:17:41.113Z,7.28
2023-05-06T08:20:10.121Z,6.47
2023-05-06T08:22:38.322Z,6.97
2023-05-06T08:25:06.953Z,6.60
2023-05-06T08:27:38.042Z,6.95
2023-05-06T08:30:09.014Z,6.38
2023-05-06T08:32:37.089Z,6.47
2023-05-06T08:35:05.634Z,6.30
2023-05-06T08:37:33.646Z,7.63
2023-05-06T08:40:01.932Z,6.80
2023-05-06T08:42:31.955Z,6.28
2023-05-06T08:45:00.312Z,5.68
2023-05-06T08:47:29.929Z,8.95
2023-05-06T08:49:57.979Z,6.13
2023-05-06T08:52:26.155Z,6.50
2023-05-06T08:55:01.416Z,6.72
2023-05-06T08:57:31.736Z,6.43
2023-05-06T08:59:59.976Z,7.55
2023-05-06T09:02:29.985Z,6.47
2023-05-06T09:04:58.179Z,6.20
2023-05-06T09:07:26.184Z,7.75
2023-05-06T09:09:54.172Z,6.10
2023-05-06T09:12:22.180Z,6.30
2023-05-06T09:14:52.123Z,5.75
2023-05-06T09:17:24.155Z,6.68
2023-05-06T09:19:57.071Z,6.07
2023-05-06T09:22:25.650Z,6.45
2023-05-06T09:24:56.910Z,6.05
2023-05-06T09:27:26.304Z,5.93
2023-05-06T09:30:02.650Z,6.63
2023-05-06T09:32:30.741Z,6.30
2023-05-06T09:35:00.192Z,6.35
2023-05-06T09:37:29.209Z,5.80
2023-05-06T09:39:58.628Z,5.70
2023-05-06T09:42:28.782Z,5.68
2023-05-06T09:45:00.546Z,5.95
2023-05-06T09:47:34.760Z,5.60
2023-05-06T09:50:05.427Z,5.90
2023-05-06T09:52:33.664Z,6.55
2023-05-06T09:55:02.919Z,6.13
2023-05-06T09:57:32.038Z,5.57
2023-05-06T10:00:01.406Z,6.05
2023-05-06T10:02:31.795Z,6.65
2023-05-06T10:05:00.700Z,6.28
2023-05-06T10:07:30.849Z,5.32
2023-05-06T10:10:00.404Z,5.65
2023-05-06T10:12:28.780Z,5.25
2023-05-06T10:14:57.339Z,5.43
2023-05-06T10:17:27.003Z,5.68
2023-05-06T10:20:00.605Z,6.00
2023-05-06T10:22:42.565Z,5.82
2023-05-06T10:25:19.447Z,6.07
2023-05-06T10:27:48.839Z,6.10
2023-05-06T10:30:18.046Z,5.78
2023-05-06T10:32:47.188Z,5.50
2023-05-06T10:35:23.827Z,5.70
2023-05-06T10:37:54.900Z,5.40
2023-05-06T10:40:24.477Z,5.50
2023-05-06T10:42:52.486Z,5.57
2023-05-06T10:45:20.860Z,4.80
2023-05-06T10:48:16.166Z,4.47
2023-05-06T10:50:46.240Z,4.50
2023-05-06T10:53:16.075Z,5.10
2023-05-06T10:55:44.464Z,4.18
2023-05-06T10:58:15.400Z,4.43
2023-05-06T11:00:43.801Z,3.70
2023-05-06T11:03:13.922Z,4.03
2023-05-06T11:05:49.971Z,3.97
2023-05-06T11:08:25.210Z,4.03
2023-05-06T11:10:53.778Z,4.10
2023-05-06T11:13:27.859Z,4.07
2023-05-06T11:15:59.792Z,3.83
2023-05-06T11:18:46.584Z,3.72
2023-05-06T11:21:36.684Z,4.70
2023-05-06T11:24:13.322Z,3.85
2023-05-06T11:26:42.406Z,4.03
2023-05-06T11:29:10.790Z,4.30
2023-05-06T11:31:44.257Z,4.10
2023-05-06T11:34:15.321Z,4.32
2023-05-06T11:37:06.660Z,4.30
2023-05-06T11:39:40.767Z,4.20
2023-05-06T11:42:10.379Z,4.10
2023-05-06T11:44:40.688Z,3.97
2023-05-06T11:47:10.368Z,4.50
2023-05-06T11:49:41.586Z,4.30
2023-05-06T11:52:10.245Z,4.05
2023-05-06T11:54:40.752Z,4.32
2023-05-06T11:57:09.762Z,3.85
2023-05-06T11:59:38.945Z,4.18
2023-05-06T12:02:08.801Z,4.05
2023-05-06T12:04:43.476Z,4.07
2023-05-06T12:07:13.067Z,3.85
2023-05-06T12:09:44.686Z,4.05
2023-05-06T12:12:16.342Z,3.70
2023-05-06T12:14:45.991Z,3.85
2023-05-06T12:17:15.612Z,4.32
2023-05-06T12:19:43.755Z,3.97
2023-05-06T12:22:19.393Z,4.10
2023-05-06T12:24:50.028Z,4.25
2023-05-06T12:27:30.814Z,4.55
2023-05-06T12:29:58.803Z,4.30
2023-05-06T12:32:30.716Z,4.45
2023-05-06T12:35:00.525Z,4.40
2023-05-06T12:37:30.459Z,4.40
2023-05-06T12:39:59.993Z,4.13
2023-05-06T12:42:28.221Z,5.97
2023-05-06T12:44:56.383Z,5.55
2023-05-06T12:47:26.599Z,4.90
2023-05-06T12:49:58.205Z,4.22
2023-05-06T12:52:28.739Z,4.20
2023-05-06T12:54:57.200Z,4.38
2023-05-06T12:57:26.588Z,3.92
2023-05-06T12:59:56.563Z,5.10
2023-05-06T13:02:24.638Z,4.00
2023-05-06T13:04:52.874Z,3.95
2023-05-06T13:07:22.356Z,4.53
2023-05-06T13:09:50.584Z,4.30
2023-05-06T13:12:18.811Z,4.95
2023-05-06T13:14:48.152Z,5.15
2023-05-06T13:17:16.279Z,5.88
2023-05-06T13:19:45.309Z,6.40
2023-05-06T13:22:13.563Z,5.47
2023-05-06T13:24:41.679Z,4.90
2023-05-06T13:27:09.787Z,3.72
2023-05-06T13:29:37.706Z,4.07
2023-05-06T13:32:08.980Z,4.40
2023-05-06T13:34:37.753Z,4.60
2023-05-06T13:37:05.888Z,5.25
2023-05-06T13:39:36.648Z,5.20
2023-05-06T13:42:06.721Z,5.63
2023-05-06T13:44:36.378Z,3.95
2023-05-06T13:47:04.370Z,4.20
2023-05-06T13:49:35.285Z,4.35
2023-05-06T13:52:08.207Z,4.38
2023-05-06T13:54:36.472Z,4.65
2023-05-06T13:57:04.726Z,4.28
2023-05-06T13:59:34.768Z,4.95
2023-05-06T14:02:07.009Z,4.07
2023-05-06T14:04:38.690Z,4.50
2023-05-06T14:07:06.704Z,4.30
2023-05-06T14:09:34.814Z,3.90
2023-05-06T14:12:02.978Z,3.60
2023-05-06T14:14:30.909Z,4.10
2023-05-06T14:16:58.825Z,3.95
2023-05-06T14:19:27.180Z,4.20
2023-05-06T14:21:57.819Z,3.92
2023-05-06T14:24:25.966Z,3.92
2023-05-06T14:26:54.163Z,4.38
2023-05-06T14:29:22.119Z,3.60
2023-05-06T14:31:50.129Z,3.50
2023-05-06T14:34:18.235Z,3.83
2023-05-06T14:36:46.275Z,3.85
2023-05-06T14:39:15.734Z,4.30
2023-05-06T14:41:43.665Z,4.30
2023-05-06T14:44:11.672Z,4.25
2023-05-06T14:46:39.686Z,4.13
2023-05-06T14:49:07.564Z,3.88
2023-05-06T14:51:35.593Z,4.20
2023-05-06T14:54:03.741Z,4.15
2023-05-06T14:56:35.558Z,3.97
2023-05-06T14:59:04.258Z,3.97
2023-05-06T15:01:33.722Z,4.10
2023-05-06T15:04:01.749Z,3.85
2023-05-06T15:06:29.775Z,4.00
2023-05-06T15:08:57.673Z,3.70
2023-05-06T15:11:25.668Z,4.00
2023-05-06T15:13:55.593Z,4.47
2023-05-06T15:16:23.681Z,4.30
2023-05-06T15:18:51.675Z,3.75
2023-05-06T15:21:19.685Z,4.07
2023-05-06T15:23:48.287Z,4.20
2023-05-06T15:26:16.316Z,4.30
2023-05-06T15:28:44.274Z,4.70
2023-05-06T15:31:13.556Z,4.45
2023-05-06T15:33:41.757Z,4.40
2023-05-06T15:36:10.046Z,4.60
2023-05-06T15:38:59.781Z,8.52
2023-05-06T15:41:30.484Z,4.63
2023-05-06T15:43:59.559Z,5.10
2023-05-06T15:46:30.640Z,4.45
2023-05-06T15:49:20.974Z,4.00
2023-05-06T15:51:47.088Z,4.15
2023-05-06T15:54:18.365Z,10.65
2023-05-06T15:56:46.638Z,6.38
2023-05-06T15:59:14.892Z,4.88
2023-05-06T16:04:17.102Z,4.35
2023-05-06T16:06:45.225Z,4.05
2023-05-06T16:09:13.174Z,4.40
2023-05-06T16:11:43.868Z,5.78
2023-05-06T16:14:11.848Z,3.70
2023-05-06T16:16:40.966Z,3.73
2023-05-06T16:19:10.743Z,3.85
2023-05-06T16:21:38.773Z,4.90
2023-05-06T16:24:07.225Z,6.03
2023-05-06T16:26:35.607Z,4.07
2023-05-06T16:29:03.611Z,4.80
2023-05-06T16:31:32.015Z,4.20
2023-05-06T16:34:00.091Z,3.87
2023-05-06T16:36:29.697Z,4.40
2023-05-06T16:38:57.663Z,4.77
2023-05-06T16:41:25.721Z,4.83
2023-05-06T16:43:54.893Z,5.00
2023-05-06T16:46:24.394Z,4.70
2023-05-06T16:48:54.177Z,4.23
2023-05-06T16:51:22.097Z,4.73
2023-05-06T16:53:51.501Z,4.70
2023-05-06T16:56:19.491Z,5.30
2023-05-06T16:58:47.473Z,5.30
2023-05-06T17:01:15.550Z,5.20
2023-05-06T17:03:43.555Z,5.03
2023-05-06T17:06:11.589Z,6.50
2023-05-06T17:08:39.835Z,5.37
2023-05-06T17:11:09.157Z,7.07
2023-05-06T17:13:40.287Z,5.40
2023-05-06T17:16:10.272Z,5.60
2023-05-06T17:18:38.344Z,6.23
2023-05-06T17:21:11.556Z,6.00
2023-05-06T17:23:39.815Z,6.00
2023-05-06T17:26:10.534Z,5.30
2023-05-06T17:28:38.809Z,5.33
2023-05-06T17:31:06.950Z,4.90
2023-05-06T17:33:35.566Z,7.10
2023-05-06T17:36:03.501Z,5.53
2023-05-06T17:38:31.604Z,5.50
2023-05-06T17:41:00.006Z,5.90
2023-05-06T17:43:29.284Z,5.20
2023-05-06T17:45:57.304Z,5.90
2023-05-06T17:48:25.337Z,5.50
2023-05-06T17:50:53.291Z,5.80
2023-05-06T17:53:21.297Z,5.47
2023-05-06T17:55:49.314Z,5.60
2023-05-06T17:58:17.642Z,5.93
2023-05-06T18:00:47.008Z,6.30
2023-05-06T18:03:15.118Z,6.70
2023-05-06T18:05:43.169Z,6.73
2023-05-06T18:08:11.105Z,6.93
2023-05-06T18:10:40.602Z,7.43
2023-05-06T18:13:10.000Z,7.90
2023-05-06T18:15:37.994Z,7.57
2023-05-06T18:18:07.587Z,7.90
2023-05-06T18:20:35.674Z,8.90
2023-05-06T18:23:03.621Z,7.70
2023-05-06T18:25:31.627Z,7.27
2023-05-06T18:27:59.785Z,8.20
2023-05-06T18:30:27.734Z,9.30
2023-05-06T18:32:56.910Z,8.43
2023-05-06T18:35:26.478Z,9.87
2023-05-06T18:37:54.926Z,10.30
2023-05-06T18:40:23.355Z,11.17
2023-05-06T18:42:51.378Z,9.40
2023-05-06T18:45:19.480Z,10.47
2023-05-06T18:47:47.492Z,11.07
2023-05-06T18:50:16.097Z,11.27
2023-05-06T18:52:45.499Z,10.10
2023-05-06T18:55:13.853Z,10.40
2023-05-06T18:57:41.914Z,10.00
2023-05-06T19:00:11.038Z,11.93
2023-05-06T19:02:39.067Z,11.83
2023-05-06T19:05:08.392Z,11.20
2023-05-06T19:07:36.718Z,18.30
2023-05-06T19:10:07.456Z,12.43
2023-05-06T19:12:35.902Z,11.77
2023-05-06T19:15:03.938Z,13.57
2023-05-06T19:17:31.986Z,11.37
2023-05-06T19:20:00.011Z,10.77
2023-05-06T19:22:29.831Z,8.83
2023-05-06T19:24:59.027Z,9.30
2023-05-06T19:27:28.303Z,8.87
2023-05-06T19:29:56.675Z,12.43
2023-05-06T19:32:24.937Z,14.13
2023-05-06T19:34:52.899Z,14.90
2023-05-06T19:37:21.219Z,14.40
2023-05-06T19:39:50.047Z,15.17
2023-05-06T19:42:18.260Z,17.10
2023-05-06T19:44:49.802Z,21.20
2023-05-06T19:47:17.872Z,19.83
2023-05-06T19:49:46.204Z,21.60
2023-05-06T19:52:14.364Z,19.47
2023-05-06T19:54:42.516Z,18.27
2023-05-06T19:57:10.671Z,17.43
2023-05-06T19:59:38.682Z,15.97
2023-05-06T20:02:11.126Z,14.70
2023-05-06T20:04:39.194Z,14.47
2023-05-06T20:07:08.361Z,13.60
2023-05-06T20:09:38.986Z,13.17
2023-05-06T20:12:07.940Z,12.73
2023-05-06T20:14:35.955Z,10.83
2023-05-06T20:17:03.968Z,10.00
2023-05-06T20:19:33.543Z,10.60
2023-05-06T20:22:01.699Z,9.53
2023-05-06T20:24:32.681Z,8.57
2023-05-06T20:27:00.697Z,8.10
2023-05-06T20:29:28.735Z,7.60
2023-05-06T20:31:56.809Z,7.73
2023-05-06T20:34:25.588Z,7.50
2023-05-06T20:36:56.267Z,7.80
2023-05-06T20:39:24.639Z,6.93
2023-05-06T20:41:52.575Z,7.33
2023-05-06T20:44:20.535Z,6.97
2023-05-06T20:46:48.508Z,7.20
2023-05-06T20:49:16.559Z,6.87
2023-05-06T20:51:44.701Z,7.27
2023-05-06T20:54:13.952Z,7.37
2023-05-06T20:56:42.998Z,7.17
2023-05-06T20:59:10.942Z,6.73
2023-05-06T21:01:39.222Z,7.43
2023-05-06T21:04:07.422Z,6.60
2023-05-06T21:06:35.452Z,6.30
2023-05-06T21:09:03.401Z,7.07
2023-05-06T21:11:37.772Z,7.23
2023-05-06T21:14:05.896Z,7.30
2023-05-06T21:16:33.887Z,7.60
2023-05-06T21:19:01.954Z,7.73
2023-05-06T21:21:32.833Z,10.27
2023-05-06T21:24:01.206Z,7.63
2023-05-06T21:26:31.638Z,7.30
2023-05-06T21:29:01.719Z,7.03
2023-05-06T21:31:30.420Z,7.53
2023-05-06T21:34:00.154Z,7.63
2023-05-06T21:36:28.443Z,8.30
2023-05-06T21:39:02.261Z,7.97
2023-05-06T21:41:31.269Z,8.63
2023-05-06T21:44:00.777Z,7.70
2023-05-06T21:46:28.816Z,8.07
2023-05-06T21:48:57.058Z,7.90
2023-05-06T21:51:27.563Z,8.03
2023-05-06T21:53:55.625Z,8.43
2023-05-06T21:56:24.391Z,10.10
2023-05-06T21:58:56.067Z,10.03
2023-05-06T22:01:27.388Z,11.10
2023-05-06T22:03:55.701Z,11.93
2023-05-06T22:06:23.843Z,12.93
2023-05-06T22:08:52.150Z,15.93
2023-05-06T22:11:22.778Z,15.60
2023-05-06T22:13:50.974Z,15.63
2023-05-06T22:16:18.962Z,15.87
2023-05-06T22:18:48.378Z,15.90
2023-05-06T22:21:16.353Z,15.53
2023-05-06T22:23:44.927Z,17.53
2023-05-06T22:26:13.355Z,15.60
2023-05-06T22:28:41.278Z,16.20
2023-05-06T22:31:09.291Z,15.47
2023-05-06T22:33:37.446Z,14.97
2023-05-06T22:36:07.344Z,16.40
2023-05-06T22:38:35.372Z,19.13
2023-05-06T22:41:03.329Z,17.47
2023-05-06T22:43:31.263Z,16.30
2023-05-06T22:45:59.257Z,17.60
2023-05-06T22:48:27.996Z,17.10
2023-05-06T22:50:56.469Z,17.97
2023-05-06T22:53:26.014Z,17.97
2023-05-06T22:55:53.980Z,17.13
2023-05-06T22:58:22.148Z,17.17
2023-05-06T23:00:50.148Z,15.70
2023-05-06T23:03:19.652Z,15.67
2023-05-06T23:05:47.648Z,16.80
2023-05-06T23:08:16.335Z,17.13
2023-05-06T23:10:45.725Z,17.40
2023-05-06T23:13:13.731Z,16.30
2023-05-06T23:15:41.691Z,16.70
2023-05-06T23:18:09.645Z,16.53
2023-05-06T23:20:37.692Z,16.57
2023-05-06T23:23:05.696Z,16.77
2023-05-06T23:25:33.625Z,15.17
2023-05-06T23:28:02.938Z,14.60
2023-05-06T23:30:31.026Z,14.97
2023-05-06T23:32:59.193Z,14.43
2023-05-06T23:35:27.167Z,14.03
2023-05-06T23:37:55.152Z,13.53
2023-05-06T23:40:23.278Z,15.10
2023-05-06T23:42:51.228Z,13.43
2023-05-06T23:45:20.880Z,14.50
2023-05-06T23:47:48.861Z,14.73
2023-05-06T23:50:17.075Z,14.43
2023-05-06T23:52:45.046Z,13.77
2023-05-06T23:55:13.672Z,14.03
2023-05-06T23:57:41.781Z,14.07
